createdAt,value
2023-04-10T00:00:30.931Z,5.1467
2023-04-10T00:01:34.152Z,5.1364
2023-04-10T00:02:37.533Z,5.1215
2023-04-10T00:03:41.140Z,5.1019
2023-04-10T00:04:44.477Z,5.0987
2023-04-10T00:05:47.675Z,5.0877
2023-04-10T00:06:47.885Z,5.0853
2023-04-10T00:07:51.102Z,5.0892
2023-04-10T00:08:54.471Z,5.0853
2023-04-10T00:09:57.681Z,5.0768
2023-04-10T00:11:00.897Z,5.0770
2023-04-10T00:12:04.107Z,5.0699
2023-04-10T00:13:07.379Z,5.0560
2023-04-10T00:14:10.578Z,5.0443
2023-04-10T00:15:13.800Z,5.0330
2023-04-10T00:16:17.056Z,5.0251
2023-04-10T00:17:20.382Z,5.0216
2023-04-10T00:18:23.593Z,5.0090
2023-04-10T00:19:26.825Z,4.9862
2023-04-10T00:20:30.019Z,4.9600
2023-04-10T00:21:33.239Z,4.9248
2023-04-10T00:22:36.441Z,4.9029
2023-04-10T00:23:39.691Z,4.8837
2023-04-10T00:24:42.919Z,4.8587
2023-04-10T00:25:46.140Z,4.8408
2023-04-10T00:26:49.362Z,4.8162
2023-04-10T00:27:52.607Z,4.7998
2023-04-10T00:28:55.815Z,4.7897
2023-04-10T00:29:59.026Z,4.7741
2023-04-10T00:31:02.266Z,4.7593
2023-04-10T00:32:05.499Z,4.7482
2023-04-10T00:33:08.708Z,4.7230
2023-04-10T00:34:12.101Z,4.7011
2023-04-10T00:35:15.318Z,4.6853
2023-04-10T00:36:18.540Z,4.6731
2023-04-10T00:37:21.771Z,4.6585
2023-04-10T00:38:24.993Z,4.6487
2023-04-10T00:39:28.202Z,4.6408
2023-04-10T00:40:28.412Z,4.6217
2023-04-10T00:41:28.392Z,4.6011
2023-04-10T00:42:31.663Z,4.5824
2023-04-10T00:43:34.882Z,4.5658
2023-04-10T00:44:38.163Z,4.5493
2023-04-10T00:45:41.497Z,4.5380
2023-04-10T00:46:44.738Z,4.5355
2023-04-10T00:47:48.031Z,4.5319
2023-04-10T00:48:51.326Z,4.5188
2023-04-10T00:49:54.604Z,4.5031
2023-04-10T00:50:57.855Z,4.4876
2023-04-10T00:51:58.527Z,4.4785
2023-04-10T00:52:58.473Z,4.4632
2023-04-10T00:54:01.784Z,4.4503
2023-04-10T00:55:05.066Z,4.4492
2023-04-10T00:56:08.324Z,4.4661
2023-04-10T00:57:11.758Z,4.4658
2023-04-10T00:58:14.972Z,4.4546
2023-04-10T00:59:18.259Z,4.4456
2023-04-10T01:00:21.492Z,4.4514
2023-04-10T01:01:21.561Z,4.4498
2023-04-10T01:02:24.919Z,4.4493
2023-04-10T01:03:25.098Z,4.4457
2023-04-10T01:04:25.095Z,4.4300
2023-04-10T01:05:28.423Z,4.4278
2023-04-10T01:06:31.706Z,4.4221
2023-04-10T01:07:34.958Z,4.4152
2023-04-10T01:08:38.240Z,4.4113
2023-04-10T01:09:38.246Z,4.4065
2023-04-10T01:10:41.527Z,4.4104
2023-04-10T01:11:41.517Z,4.4132
2023-04-10T01:12:44.793Z,4.4115
2023-04-10T01:13:44.888Z,4.4175
2023-04-10T01:14:48.139Z,4.4219
2023-04-10T01:15:51.425Z,4.4040
2023-04-10T01:16:54.751Z,4.3771
2023-04-10T01:17:58.003Z,4.3610
2023-04-10T01:19:01.262Z,4.3364
2023-04-10T01:20:04.514Z,4.3218
2023-04-10T01:21:07.770Z,4.3037
2023-04-10T01:22:11.072Z,4.2972
2023-04-10T01:23:14.304Z,4.2946
2023-04-10T01:24:17.599Z,4.2910
2023-04-10T01:25:20.826Z,4.2749
2023-04-10T01:26:24.104Z,4.2682
2023-04-10T01:27:27.372Z,4.2692
2023-04-10T01:28:30.637Z,4.2691
2023-04-10T01:29:33.903Z,4.2601
2023-04-10T01:30:37.250Z,4.2443
2023-04-10T01:31:37.310Z,4.2500
2023-04-10T01:32:40.612Z,4.2400
2023-04-10T01:33:43.878Z,4.2319
2023-04-10T01:34:47.137Z,4.2247
2023-04-10T01:35:50.437Z,4.2172
2023-04-10T01:36:50.563Z,4.1961
2023-04-10T01:37:53.842Z,4.1753
2023-04-10T01:38:57.104Z,4.1623
2023-04-10T01:40:00.379Z,4.1498
2023-04-10T01:41:03.668Z,4.1475
2023-04-10T01:42:06.940Z,4.1356
2023-04-10T01:43:10.232Z,4.1277
2023-04-10T01:44:13.510Z,4.1200
2023-04-10T01:45:16.750Z,4.1066
2023-04-10T01:46:20.010Z,4.0742
2023-04-10T01:47:23.282Z,4.0453
2023-04-10T01:48:26.520Z,4.0250
2023-04-10T01:49:29.788Z,3.9919
2023-04-10T01:50:33.048Z,3.9786
2023-04-10T01:51:36.329Z,3.9685
2023-04-10T01:52:39.625Z,3.9465
2023-04-10T01:53:42.894Z,3.9213
2023-04-10T01:54:46.114Z,3.8890
2023-04-10T01:55:49.396Z,3.8526
2023-04-10T01:56:52.641Z,3.8071
2023-04-10T01:57:55.945Z,3.7656
2023-04-10T01:58:59.401Z,3.7536
2023-04-10T02:00:02.648Z,3.7461
2023-04-10T02:01:05.911Z,3.7324
2023-04-10T02:02:06.045Z,3.7306
2023-04-10T02:03:09.575Z,3.7296
2023-04-10T02:04:09.738Z,3.7225
2023-04-10T02:05:21.625Z,3.7096
2023-04-10T02:06:14.660Z,3.7189
2023-04-10T02:07:17.904Z,3.7207
2023-04-10T02:08:21.225Z,3.7109
2023-04-10T02:09:24.449Z,3.7067
2023-04-10T02:10:27.779Z,3.7174
2023-04-10T02:11:31.044Z,3.7182
2023-04-10T02:12:34.269Z,3.6909
2023-04-10T02:13:37.685Z,3.6752
2023-04-10T02:14:40.933Z,3.6601
2023-04-10T02:15:44.225Z,3.6284
2023-04-10T02:16:44.254Z,3.5754
2023-04-10T02:17:47.545Z,3.5405
2023-04-10T02:18:50.787Z,3.5280
2023-04-10T02:19:54.068Z,3.5185
2023-04-10T02:20:57.300Z,3.4987
2023-04-10T02:22:00.555Z,3.4984
2023-04-10T02:23:04.069Z,3.4914
2023-04-10T02:24:03.868Z,3.4887
2023-04-10T02:25:07.095Z,3.4874
2023-04-10T02:26:10.837Z,3.4778
2023-04-10T02:27:10.553Z,3.4644
2023-04-10T02:28:13.798Z,3.4533
2023-04-10T02:29:17.036Z,3.4573
2023-04-10T02:30:20.274Z,3.4549
2023-04-10T02:31:23.545Z,3.4470
2023-04-10T02:32:26.904Z,3.4396
2023-04-10T02:33:30.140Z,3.4485
2023-04-10T02:34:33.431Z,3.4565
2023-04-10T02:35:37.179Z,3.4486
2023-04-10T02:36:37.205Z,3.4489
2023-04-10T02:37:37.161Z,3.4484
2023-04-10T02:38:37.070Z,3.4570
2023-04-10T02:39:40.366Z,3.4669
2023-04-10T02:40:43.600Z,3.4761
2023-04-10T02:41:46.882Z,3.4733
2023-04-10T02:42:50.118Z,3.4616
2023-04-10T02:43:53.617Z,3.4522
2023-04-10T02:44:53.596Z,3.4562
2023-04-10T02:45:56.872Z,3.4459
2023-04-10T02:47:00.923Z,3.4334
2023-04-10T02:48:00.703Z,3.4080
2023-04-10T02:49:03.943Z,3.3912
2023-04-10T02:50:07.209Z,3.3663
2023-04-10T02:51:10.483Z,3.3453
2023-04-10T02:52:13.711Z,3.3248
2023-04-10T02:53:16.946Z,3.3132
2023-04-10T02:54:17.029Z,3.3078
2023-04-10T02:55:20.300Z,3.3159
2023-04-10T02:56:23.526Z,3.3222
2023-04-10T02:57:26.801Z,3.3100
2023-04-10T02:58:30.050Z,3.2873
2023-04-10T02:59:33.288Z,3.2777
2023-04-10T03:00:36.522Z,3.2891
2023-04-10T03:01:40.075Z,3.2961
2023-04-10T03:02:43.438Z,3.3064
2023-04-10T03:03:43.415Z,3.3145
2023-04-10T03:04:46.758Z,3.3040
2023-04-10T03:05:50.012Z,3.2863
2023-04-10T03:06:53.265Z,3.2522
2023-04-10T03:07:56.497Z,3.2266
2023-04-10T03:08:59.790Z,3.1904
2023-04-10T03:10:03.452Z,3.1713
2023-04-10T03:11:03.182Z,3.1576
2023-04-10T03:12:06.428Z,3.1582
2023-04-10T03:13:09.694Z,3.1458
2023-04-10T03:14:13.060Z,3.1147
2023-04-10T03:15:16.731Z,3.0793
2023-04-10T03:16:16.513Z,3.0622
2023-04-10T03:17:19.742Z,3.0657
2023-04-10T03:18:23.000Z,3.0502
2023-04-10T03:19:26.238Z,3.0240
2023-04-10T03:20:29.997Z,3.0020
2023-04-10T03:21:30.264Z,2.9798
2023-04-10T03:22:33.513Z,2.9473
2023-04-10T03:23:37.133Z,2.9213
2023-04-10T03:24:36.941Z,2.9099
2023-04-10T03:25:40.196Z,2.9111
2023-04-10T03:26:40.388Z,2.9485
2023-04-10T03:27:43.656Z,2.9719
2023-04-10T03:28:46.945Z,2.9838
2023-04-10T03:29:50.200Z,2.9700
2023-04-10T03:30:53.454Z,2.9531
2023-04-10T03:31:56.779Z,2.9612
2023-04-10T03:32:56.690Z,2.9668
2023-04-10T03:34:00.210Z,2.9613
2023-04-10T03:35:03.482Z,2.9362
2023-04-10T03:36:06.745Z,2.9136
2023-04-10T03:37:10.046Z,2.8966
2023-04-10T03:38:13.369Z,2.8841
2023-04-10T03:39:13.433Z,2.8641
2023-04-10T03:40:16.669Z,2.8289
2023-04-10T03:41:19.959Z,2.7877
2023-04-10T03:42:23.241Z,2.7683
2023-04-10T03:43:26.505Z,2.7509
2023-04-10T03:44:29.757Z,2.7163
2023-04-10T03:45:33.056Z,2.6699
2023-04-10T03:46:33.072Z,2.6275
2023-04-10T03:47:36.331Z,2.6094
2023-04-10T03:48:39.574Z,2.6090
2023-04-10T03:49:42.819Z,2.6080
2023-04-10T03:50:46.061Z,2.5968
2023-04-10T03:51:49.327Z,2.5790
2023-04-10T03:52:52.588Z,2.5607
2023-04-10T03:53:56.121Z,2.5339
2023-04-10T03:54:56.065Z,2.5250
2023-04-10T03:55:59.460Z,2.5167
2023-04-10T03:57:03.270Z,2.5056
2023-04-10T03:58:03.029Z,2.5087
2023-04-10T03:59:06.302Z,2.5092
2023-04-10T04:00:09.514Z,2.5052
2023-04-10T04:01:12.763Z,2.4958
2023-04-10T04:02:16.289Z,2.4897
2023-04-10T04:03:19.832Z,2.4927
2023-04-10T04:04:20.174Z,2.4847
2023-04-10T04:05:20.070Z,2.4764
2023-04-10T04:06:23.298Z,2.4701
2023-04-10T04:07:26.574Z,2.4465
2023-04-10T04:08:29.922Z,2.4237
2023-04-10T04:09:33.224Z,2.4059
2023-04-10T04:10:36.443Z,2.3888
2023-04-10T04:11:39.688Z,2.3970
2023-04-10T04:12:42.909Z,2.4180
2023-04-10T04:13:46.169Z,2.4290
2023-04-10T04:14:49.611Z,2.4306
2023-04-10T04:15:52.971Z,2.4393
2023-04-10T04:16:56.262Z,2.4499
2023-04-10T04:17:59.525Z,2.4718
2023-04-10T04:19:02.826Z,2.4758
2023-04-10T04:20:06.107Z,2.4723
2023-04-10T04:21:09.311Z,2.4449
2023-04-10T04:22:12.950Z,2.4225
2023-04-10T04:23:16.167Z,2.3969
2023-04-10T04:24:19.430Z,2.3737
2023-04-10T04:25:22.649Z,2.3436
2023-04-10T04:26:25.921Z,2.3194
2023-04-10T04:27:29.172Z,2.3025
2023-04-10T04:28:32.413Z,2.2720
2023-04-10T04:29:35.922Z,2.2414
2023-04-10T04:30:36.300Z,2.2095
2023-04-10T04:31:36.123Z,2.1809
2023-04-10T04:32:39.400Z,2.1697
2023-04-10T04:33:43.100Z,2.1425
2023-04-10T04:34:42.887Z,2.1316
2023-04-10T04:35:46.200Z,2.1156
2023-04-10T04:36:49.429Z,2.0918
2023-04-10T04:37:52.732Z,2.0392
2023-04-10T04:38:55.959Z,1.9873
2023-04-10T04:39:59.226Z,1.9461
2023-04-10T04:41:02.467Z,1.9056
2023-04-10T04:42:03.761Z,1.8861
2023-04-10T04:43:07.011Z,1.8827
2023-04-10T04:44:10.680Z,1.8763
2023-04-10T04:45:10.542Z,1.8859
2023-04-10T04:46:13.841Z,1.9179
2023-04-10T04:47:17.125Z,1.9580
2023-04-10T04:48:20.383Z,1.9761
2023-04-10T04:49:24.054Z,2.0043
2023-04-10T04:50:24.870Z,2.0521
2023-04-10T04:51:24.689Z,2.1044
2023-04-10T04:52:27.949Z,2.1511
2023-04-10T04:53:31.188Z,2.1949
2023-04-10T04:54:34.432Z,2.2194
2023-04-10T04:55:37.787Z,2.2015
2023-04-10T04:56:40.994Z,2.1963
2023-04-10T04:57:44.274Z,2.1935
2023-04-10T04:58:47.496Z,2.1998
2023-04-10T04:59:50.747Z,2.2260
2023-04-10T05:00:54.046Z,2.2390
2023-04-10T05:01:58.306Z,2.2637
2023-04-10T05:02:58.225Z,2.2813
2023-04-10T05:04:01.570Z,2.2884
2023-04-10T05:05:04.869Z,2.2806
2023-04-10T05:06:08.699Z,2.2750
2023-04-10T05:07:08.464Z,2.2650
2023-04-10T05:08:11.695Z,2.2598
2023-04-10T05:09:14.967Z,2.2607
2023-04-10T05:10:18.195Z,2.2629
2023-04-10T05:11:21.590Z,2.2698
2023-04-10T05:12:23.449Z,2.2700
2023-04-10T05:13:26.709Z,2.2837
2023-04-10T05:14:29.980Z,2.3116
2023-04-10T05:15:33.281Z,2.3481
2023-04-10T05:16:36.772Z,2.3950
2023-04-10T05:17:36.575Z,2.4270
2023-04-10T05:18:39.802Z,2.4440
2023-04-10T05:19:41.385Z,2.4722
2023-04-10T05:20:44.657Z,2.4935
2023-04-10T05:21:49.258Z,2.4959
2023-04-10T05:22:49.124Z,2.4964
2023-04-10T05:23:52.351Z,2.4996
2023-04-10T05:24:55.855Z,2.5106
2023-04-10T05:25:59.115Z,2.5285
2023-04-10T05:27:02.439Z,2.5483
2023-04-10T05:28:05.623Z,2.5653
2023-04-10T05:29:08.938Z,2.5859
2023-04-10T05:30:12.164Z,2.6002
2023-04-10T05:31:15.466Z,2.6271
2023-04-10T05:32:18.734Z,2.6574
2023-04-10T05:33:21.992Z,2.6852
2023-04-10T05:34:25.216Z,2.7198
2023-04-10T05:35:28.494Z,2.7460
2023-04-10T05:36:31.725Z,2.7738
2023-04-10T05:37:34.971Z,2.8071
2023-04-10T05:38:38.223Z,2.8389
2023-04-10T05:39:38.298Z,2.8685
2023-04-10T05:40:41.497Z,2.9023
2023-04-10T05:41:44.752Z,2.9464
2023-04-10T05:42:47.995Z,2.9840
2023-04-10T05:43:51.259Z,3.0145
2023-04-10T05:44:54.485Z,3.0424
2023-04-10T05:45:57.829Z,3.0717
2023-04-10T05:47:01.076Z,3.1041
2023-04-10T05:48:04.690Z,3.1309
2023-04-10T05:49:04.466Z,3.1630
2023-04-10T05:50:07.725Z,3.1922
2023-04-10T05:51:11.004Z,3.2354
2023-04-10T05:52:14.224Z,3.2811
2023-04-10T05:53:17.481Z,3.3235
2023-04-10T05:54:20.738Z,3.3688
2023-04-10T05:55:23.969Z,3.4114
2023-04-10T05:56:27.257Z,3.4379
2023-04-10T05:57:30.473Z,3.4777
2023-04-10T05:58:33.742Z,3.5131
2023-04-10T05:59:36.980Z,3.5495
2023-04-10T06:00:40.243Z,3.5812
2023-04-10T06:01:43.485Z,3.6109
2023-04-10T06:02:46.941Z,3.6361
2023-04-10T06:03:46.966Z,3.6672
2023-04-10T06:04:46.916Z,3.6994
2023-04-10T06:05:50.158Z,3.7243
2023-04-10T06:06:53.412Z,3.7479
2023-04-10T06:07:58.352Z,3.7778
2023-04-10T06:08:58.438Z,3.8036
2023-04-10T06:10:01.656Z,3.8360
2023-04-10T06:11:04.911Z,3.8685
2023-04-10T06:12:08.187Z,3.9025
2023-04-10T06:13:11.465Z,3.9372
2023-04-10T06:14:14.710Z,3.9610
2023-04-10T06:15:17.952Z,3.9884
2023-04-10T06:16:21.220Z,4.0086
2023-04-10T06:17:24.484Z,4.0470
2023-04-10T06:18:27.744Z,4.0782
2023-04-10T06:19:31.002Z,4.0948
2023-04-10T06:20:34.272Z,4.1210
2023-04-10T06:21:37.540Z,4.1446
2023-04-10T06:22:40.839Z,4.1721
2023-04-10T06:23:44.067Z,4.2017
2023-04-10T06:24:47.306Z,4.2139
2023-04-10T06:25:50.562Z,4.2378
2023-04-10T06:26:53.797Z,4.2696
2023-04-10T06:27:57.061Z,4.3003
2023-04-10T06:29:00.352Z,4.3228
2023-04-10T06:30:03.667Z,4.3465
2023-04-10T06:31:06.882Z,4.3646
2023-04-10T06:32:10.123Z,4.3798
2023-04-10T06:33:13.381Z,4.3887
2023-04-10T06:34:16.639Z,4.3926
2023-04-10T06:35:19.875Z,4.3842
2023-04-10T06:36:23.173Z,4.3792
2023-04-10T06:37:26.515Z,4.3971
2023-04-10T06:38:29.840Z,4.4159
2023-04-10T06:39:33.087Z,4.4361
2023-04-10T06:40:36.417Z,4.4527
2023-04-10T06:41:39.624Z,4.4789
2023-04-10T06:42:42.858Z,4.5393
2023-04-10T06:43:46.132Z,4.6263
2023-04-10T06:44:49.423Z,4.7427
2023-04-10T06:45:52.762Z,4.8944
2023-04-10T06:46:55.998Z,5.0741
2023-04-10T06:47:59.427Z,5.2682
2023-04-10T06:49:03.373Z,5.4757
2023-04-10T06:50:03.185Z,5.6931
2023-04-10T06:51:06.480Z,5.9340
2023-04-10T06:52:09.756Z,6.2108
2023-04-10T06:53:13.000Z,6.4930
2023-04-10T06:54:16.285Z,6.7789
2023-04-10T06:55:19.557Z,7.0476
2023-04-10T06:56:22.990Z,7.3368
2023-04-10T06:57:26.248Z,7.6196
2023-04-10T06:58:29.477Z,7.8920
2023-04-10T06:59:32.766Z,8.1661
2023-04-10T07:00:36.002Z,8.4370
2023-04-10T07:01:39.287Z,8.6834
2023-04-10T07:02:42.624Z,8.8993
2023-04-10T07:03:46.007Z,9.0893
2023-04-10T07:04:50.411Z,9.2767
2023-04-10T07:05:50.281Z,9.4543
2023-04-10T07:06:53.543Z,9.6120
2023-04-10T07:07:56.798Z,9.7896
2023-04-10T07:09:00.078Z,9.9963
2023-04-10T07:10:03.336Z,10.2211
2023-04-10T07:11:07.025Z,10.4239
2023-04-10T07:12:07.076Z,10.6031
2023-04-10T07:13:07.873Z,10.7828
2023-04-10T07:14:08.076Z,10.9539
2023-04-10T07:15:08.360Z,11.0984
2023-04-10T07:16:08.182Z,11.2398
2023-04-10T07:17:11.418Z,11.3707
2023-04-10T07:18:11.714Z,11.4924
2023-04-10T07:19:14.961Z,11.6222
2023-04-10T07:20:18.466Z,11.7716
2023-04-10T07:21:21.704Z,11.9265
2023-04-10T07:22:24.992Z,12.1153
2023-04-10T07:23:28.494Z,12.3406
2023-04-10T07:24:28.294Z,12.5738
2023-04-10T07:25:28.402Z,12.7746
2023-04-10T07:26:31.687Z,12.9638
2023-04-10T07:27:34.991Z,13.1736
2023-04-10T07:28:38.293Z,13.3727
2023-04-10T07:29:41.809Z,13.5523
2023-04-10T07:30:41.651Z,13.7128
2023-04-10T07:31:45.002Z,13.8407
2023-04-10T07:32:45.354Z,13.9847
2023-04-10T07:33:45.230Z,14.1214
2023-04-10T07:34:48.500Z,14.2829
2023-04-10T07:35:51.796Z,14.4579
2023-04-10T07:36:55.074Z,14.6233
2023-04-10T07:37:55.197Z,14.7357
2023-04-10T07:38:58.534Z,14.8104
2023-04-10T07:40:01.788Z,14.8831
2023-04-10T07:41:05.082Z,14.9723
2023-04-10T07:42:08.509Z,15.0523
2023-04-10T07:43:11.788Z,15.1279
2023-04-10T07:44:15.048Z,15.1792
2023-04-10T07:45:15.116Z,15.2197
2023-04-10T07:46:18.904Z,15.2550
2023-04-10T07:47:18.741Z,15.3199
2023-04-10T07:48:22.037Z,15.4193
2023-04-10T07:49:25.366Z,15.5424
2023-04-10T07:50:28.638Z,15.6781
2023-04-10T07:51:31.970Z,15.7892
2023-04-10T07:52:35.247Z,15.8771
2023-04-10T07:53:35.290Z,15.9879
2023-04-10T07:54:38.609Z,16.1134
2023-04-10T07:55:39.560Z,16.2323
2023-04-10T07:56:39.507Z,16.3354
2023-04-10T07:57:43.049Z,16.4526
2023-04-10T07:58:42.866Z,16.5773
2023-04-10T07:59:46.146Z,16.7041
2023-04-10T08:00:46.771Z,16.8464
2023-04-10T08:01:50.133Z,16.9915
2023-04-10T08:02:50.342Z,17.0964
2023-04-10T08:03:50.415Z,17.2029
2023-04-10T08:04:50.492Z,17.3231
2023-04-10T08:05:50.428Z,17.4303
2023-04-10T08:06:53.697Z,17.5709
2023-04-10T08:07:57.125Z,17.7459
2023-04-10T08:09:00.447Z,17.9459
2023-04-10T08:10:03.798Z,18.1196
2023-04-10T08:11:07.052Z,18.2730
2023-04-10T08:12:10.389Z,18.4000
2023-04-10T08:13:10.408Z,18.5335
2023-04-10T08:14:13.765Z,18.6169
2023-04-10T08:15:14.760Z,18.6551
2023-04-10T08:16:18.120Z,18.6767
2023-04-10T08:17:21.495Z,18.6993
2023-04-10T08:18:22.312Z,18.7242
2023-04-10T08:19:25.666Z,18.7557
2023-04-10T08:20:28.998Z,18.7941
2023-04-10T08:21:32.420Z,18.8695
2023-04-10T08:22:35.684Z,18.9405
2023-04-10T08:23:38.979Z,19.0308
2023-04-10T08:24:42.299Z,19.1522
2023-04-10T08:25:45.593Z,19.3201
2023-04-10T08:26:49.562Z,19.4700
2023-04-10T08:27:49.456Z,19.5658
2023-04-10T08:28:53.047Z,19.6693
2023-04-10T08:29:53.118Z,19.7382
2023-04-10T08:30:56.498Z,19.7972
2023-04-10T08:31:59.804Z,19.8664
2023-04-10T08:33:03.203Z,19.9333
2023-04-10T08:34:06.533Z,19.9735
2023-04-10T08:35:09.934Z,20.0304
2023-04-10T08:36:10.044Z,20.0612
2023-04-10T08:37:13.360Z,20.1326
2023-04-10T08:38:16.759Z,20.1919
2023-04-10T08:39:20.059Z,20.2019
2023-04-10T08:40:23.409Z,20.2245
2023-04-10T08:41:23.639Z,20.2733
2023-04-10T08:43:29.482Z,20.3215
2023-04-10T08:43:29.482Z,20.3529
2023-04-10T08:44:32.771Z,20.3846
2023-04-10T08:45:36.262Z,20.4851
2023-04-10T08:46:39.794Z,20.6181
2023-04-10T08:47:39.749Z,20.7591
2023-04-10T08:48:43.029Z,20.9161
2023-04-10T08:49:46.387Z,21.0608
2023-04-10T08:50:49.717Z,21.1675
2023-04-10T08:51:53.240Z,21.2436
2023-04-10T08:52:56.570Z,21.2888
2023-04-10T08:53:59.929Z,21.3048
2023-04-10T08:55:03.217Z,21.3856
2023-04-10T08:56:06.569Z,21.5250
2023-04-10T08:57:11.054Z,21.6494
2023-04-10T08:58:10.992Z,21.7435
2023-04-10T08:59:14.299Z,21.8025
2023-04-10T09:01:19.823Z,21.9262
2023-04-10T09:02:23.152Z,21.9769
2023-04-10T09:03:26.605Z,22.0198
2023-04-10T09:04:26.584Z,22.0545
2023-04-10T09:05:29.943Z,22.1055
2023-04-10T09:06:33.300Z,22.1472
2023-04-10T09:07:36.607Z,22.1895
2023-04-10T09:08:39.961Z,22.2278
2023-04-10T09:09:43.264Z,22.2688
2023-04-10T09:10:46.582Z,22.3378
2023-04-10T09:11:49.994Z,22.4682
2023-04-10T09:12:53.274Z,22.5851
2023-04-10T09:13:56.725Z,22.6489
2023-04-10T09:14:56.635Z,22.7310
2023-04-10T09:15:56.722Z,22.8370
2023-04-10T09:17:00.055Z,22.9621
2023-04-10T09:18:03.489Z,23.0876
2023-04-10T09:19:05.721Z,23.1843
2023-04-10T09:20:03.563Z,23.2921
2023-04-10T09:21:06.878Z,23.4224
2023-04-10T09:22:10.233Z,23.5245
2023-04-10T09:23:13.535Z,23.6241
2023-04-10T09:24:13.633Z,23.6837
2023-04-10T09:25:16.990Z,23.7234
2023-04-10T09:26:17.107Z,23.7764
2023-04-10T09:27:20.505Z,23.8596
2023-04-10T09:28:23.792Z,23.9556
2023-04-10T09:29:27.096Z,24.0543
2023-04-10T09:30:30.404Z,24.1470
2023-04-10T09:31:33.726Z,24.2679
2023-04-10T09:32:37.061Z,24.4287
2023-04-10T09:33:40.362Z,24.5731
2023-04-10T09:34:43.690Z,24.6737
2023-04-10T09:35:47.002Z,24.7649
2023-04-10T09:36:50.366Z,24.8167
2023-04-10T09:37:53.705Z,24.8088
2023-04-10T09:38:57.044Z,24.8250
2023-04-10T09:40:00.418Z,24.9201
2023-04-10T09:41:03.725Z,25.0584
2023-04-10T09:42:07.044Z,25.2225
2023-04-10T09:43:10.337Z,25.3453
2023-04-10T09:44:13.700Z,25.4263
2023-04-10T09:45:17.014Z,25.5375
2023-04-10T09:46:20.392Z,25.6386
2023-04-10T09:47:23.758Z,25.7420
2023-04-10T09:48:27.140Z,25.8087
2023-04-10T09:49:30.516Z,25.8280
2023-04-10T09:50:36.314Z,25.8219
2023-04-10T09:51:34.291Z,25.7715
2023-04-10T09:52:37.565Z,25.7345
2023-04-10T09:53:37.664Z,25.7202
2023-04-10T09:54:40.967Z,25.7150
2023-04-10T09:55:44.278Z,25.7131
2023-04-10T09:56:47.589Z,25.7053
2023-04-10T09:57:50.943Z,25.6964
2023-04-10T09:58:54.414Z,25.6282
2023-04-10T09:59:54.332Z,25.5827
2023-04-10T10:00:57.687Z,25.5338
2023-04-10T10:02:01.099Z,25.4900
2023-04-10T10:03:04.698Z,25.4314
2023-04-10T10:04:04.869Z,25.3431
2023-04-10T10:05:08.268Z,25.2700
2023-04-10T10:06:08.530Z,25.2249
2023-04-10T10:07:11.871Z,25.2227
2023-04-10T10:08:15.176Z,25.1879
2023-04-10T10:09:19.498Z,25.1759
2023-04-10T10:10:19.353Z,25.2153
2023-04-10T10:11:22.624Z,25.2699
2023-04-10T10:12:25.932Z,25.3354
2023-04-10T10:13:29.462Z,25.4069
2023-04-10T10:14:32.809Z,25.4592
2023-04-10T10:15:36.126Z,25.5130
2023-04-10T10:16:39.496Z,25.5466
2023-04-10T10:17:42.778Z,25.5895
2023-04-10T10:18:46.059Z,25.6123
2023-04-10T10:19:49.377Z,25.5929
2023-04-10T10:20:52.656Z,25.5525
2023-04-10T10:21:52.672Z,25.5083
2023-04-10T10:22:55.965Z,25.4158
2023-04-10T10:23:56.016Z,25.3223
2023-04-10T10:24:59.301Z,25.2278
2023-04-10T10:26:03.971Z,25.1117
2023-04-10T10:27:03.795Z,25.0130
2023-04-10T10:28:07.091Z,24.9151
2023-04-10T10:29:10.370Z,24.8434
2023-04-10T10:30:28.321Z,24.8157
2023-04-10T10:31:15.948Z,24.8264
2023-04-10T10:32:19.316Z,24.8252
2023-04-10T10:33:22.610Z,24.8201
2023-04-10T10:34:25.929Z,24.7908
2023-04-10T10:35:30.108Z,24.8026
2023-04-10T10:36:30.035Z,24.8475
2023-04-10T10:37:33.307Z,24.8995
2023-04-10T10:38:36.905Z,24.9100
2023-04-10T10:39:40.190Z,24.9199
2023-04-10T10:40:43.529Z,24.9404
2023-04-10T10:41:43.570Z,24.9337
2023-04-10T10:42:46.916Z,24.8914
2023-04-10T10:43:50.160Z,24.8309
2023-04-10T10:44:53.472Z,24.7971
2023-04-10T10:45:56.809Z,24.7919
2023-04-10T10:47:00.138Z,24.8148
2023-04-10T10:48:03.539Z,24.8469
2023-04-10T10:49:03.534Z,24.8663
2023-04-10T10:50:06.822Z,24.8915
2023-04-10T10:51:10.153Z,24.9118
2023-04-10T10:52:13.534Z,24.9210
2023-04-10T10:53:16.845Z,24.9209
2023-04-10T10:54:20.157Z,24.9192
2023-04-10T10:55:23.490Z,24.9166
2023-04-10T10:56:26.823Z,24.9203
2023-04-10T10:57:30.127Z,24.9176
2023-04-10T10:58:33.470Z,24.9170
2023-04-10T10:59:36.790Z,24.9224
2023-04-10T11:00:40.073Z,24.9593
2023-04-10T11:01:43.530Z,25.0165
2023-04-10T11:02:43.481Z,25.0433
2023-04-10T11:03:43.473Z,25.0185
2023-04-10T11:04:46.905Z,24.9038
2023-04-10T11:05:50.241Z,24.7572
2023-04-10T11:06:53.577Z,24.5678
2023-04-10T11:07:56.900Z,24.3495
2023-04-10T11:08:57.311Z,24.1954
2023-04-10T11:09:57.313Z,24.0929
2023-04-10T11:11:00.588Z,24.0494
2023-04-10T11:12:04.138Z,24.0724
2023-04-10T11:13:03.924Z,24.1115
2023-04-10T11:14:07.261Z,24.1424
2023-04-10T11:15:10.570Z,24.2136
2023-04-10T11:16:13.936Z,24.3140
2023-04-10T11:17:17.259Z,24.4042
2023-04-10T11:18:20.548Z,24.4697
2023-04-10T11:19:24.295Z,24.5471
2023-04-10T11:20:24.297Z,24.6295
2023-04-10T11:21:27.609Z,24.7121
2023-04-10T11:22:30.960Z,24.7978
2023-04-10T11:23:34.254Z,24.8833
2023-04-10T11:24:37.574Z,24.9946
2023-04-10T11:25:40.877Z,25.0781
2023-04-10T11:26:44.379Z,25.1368
2023-04-10T11:27:47.774Z,25.2021
2023-04-10T11:28:51.289Z,25.2481
2023-04-10T11:29:54.579Z,25.3087
2023-04-10T11:30:57.884Z,25.4101
2023-04-10T11:32:01.270Z,25.5349
2023-04-10T11:33:01.297Z,25.6701
2023-04-10T11:34:02.202Z,25.8045
2023-04-10T11:35:05.725Z,25.9229
2023-04-10T11:36:05.569Z,26.0043
2023-04-10T11:37:05.601Z,26.0813
2023-04-10T11:38:08.941Z,26.1681
2023-04-10T11:39:12.348Z,26.2214
2023-04-10T11:40:15.662Z,26.2380
2023-04-10T11:41:19.092Z,26.2204
2023-04-10T11:42:22.369Z,26.2073
2023-04-10T11:43:25.677Z,26.2419
2023-04-10T11:44:29.151Z,26.3193
2023-04-10T11:45:32.444Z,26.4533
2023-04-10T11:46:35.725Z,26.6144
2023-04-10T11:47:39.112Z,26.7486
2023-04-10T11:48:42.405Z,26.8960
2023-04-10T11:49:45.742Z,27.0644
2023-04-10T11:50:49.019Z,27.1801
2023-04-10T11:51:52.334Z,27.2634
2023-04-10T11:52:56.576Z,27.3679
2023-04-10T11:53:56.503Z,27.4572
2023-04-10T11:54:59.806Z,27.5385
2023-04-10T11:56:03.119Z,27.6321
2023-04-10T11:57:06.411Z,27.7029
2023-04-10T11:58:09.714Z,27.7703
2023-04-10T11:59:13.042Z,27.8278
2023-04-10T12:00:16.360Z,27.8894
2023-04-10T12:01:19.750Z,27.9568
2023-04-10T12:02:23.118Z,28.0244
2023-04-10T12:03:26.621Z,28.0085
2023-04-10T12:04:26.708Z,27.9766
2023-04-10T12:05:26.603Z,27.9613
2023-04-10T12:06:29.873Z,27.9937
2023-04-10T12:07:33.219Z,28.0714
2023-04-10T12:08:36.478Z,28.2223
2023-04-10T12:09:38.039Z,28.4052
2023-04-10T12:10:41.308Z,28.5262
2023-04-10T12:11:41.371Z,28.5924
2023-04-10T12:12:44.652Z,28.6596
2023-04-10T12:13:47.950Z,28.6620
2023-04-10T12:14:47.975Z,28.5991
2023-04-10T12:15:51.296Z,28.5769
2023-04-10T12:16:51.319Z,28.6502
2023-04-10T12:17:54.660Z,28.7756
2023-04-10T12:18:58.200Z,28.9192
2023-04-10T12:19:58.091Z,29.0222
2023-04-10T12:21:01.456Z,29.0530
2023-04-10T12:22:01.597Z,29.0496
2023-04-10T12:23:04.865Z,28.9937
2023-04-10T12:24:08.224Z,28.9414
2023-04-10T12:25:11.520Z,28.9965
2023-04-10T12:26:14.849Z,29.0530
2023-04-10T12:27:14.836Z,29.0542
2023-04-10T12:28:18.140Z,29.0686
2023-04-10T12:29:21.500Z,29.0800
2023-04-10T12:30:25.614Z,29.1399
2023-04-10T12:31:25.439Z,29.2579
2023-04-10T12:32:28.734Z,29.3600
2023-04-10T12:33:32.032Z,29.4065
2023-04-10T12:34:35.356Z,29.4069
2023-04-10T12:35:38.688Z,29.3908
2023-04-10T12:36:42.060Z,29.4303
2023-04-10T12:37:45.404Z,29.5112
2023-04-10T12:38:48.709Z,29.5129
2023-04-10T12:39:48.737Z,29.3693
2023-04-10T12:40:52.073Z,29.1622
2023-04-10T12:41:52.094Z,28.9302
2023-04-10T12:42:55.408Z,28.7053
2023-04-10T12:43:58.831Z,28.5492
2023-04-10T12:45:02.180Z,28.3808
2023-04-10T12:46:05.573Z,28.2275
2023-04-10T12:47:05.643Z,28.0986
2023-04-10T12:48:08.972Z,27.9925
2023-04-10T12:49:12.282Z,27.9119
2023-04-10T12:50:15.559Z,27.8084
2023-04-10T12:51:19.116Z,27.5863
2023-04-10T12:52:18.944Z,27.4013
2023-04-10T12:53:22.261Z,27.2984